sensor_id;sensor_type;location;lat;lon;timestamp;P1;durP1;ratioP1;P2;durP2;ratioP2
27424;SDS011;15244;49.088;11.886;2022-07-01T00:01:08;3.90;;;3.60;;
27424;SDS011;15244;49.088;11.886;2022-07-01T00:06:10;4.28;;;3.67;;
27424;SDS011;15244;49.088;11.886;2022-07-01T00:11:12;3.80;;;3.50;;
27424;SDS011;15244;49.088;11.886;2022-07-01T00:16:13;4.35;;;3.70;;
27424;SDS011;15244;49.088;11.886;2022-07-01T00:21:15;6.10;;;3.90;;
27424;SDS011;15244;49.088;11.886;2022-07-01T00:26:17;8.13;;;3.33;;
27424;SDS011;15244;49.088;11.886;2022-07-01T00:31:19;3.80;;;3.30;;
27424;SDS011;15244;49.088;11.886;2022-07-01T00:36:20;2.90;;;2.70;;
27424;SDS011;15244;49.088;11.886;2022-07-01T00:41:26;2.67;;;2.47;;
27424;SDS011;15244;49.088;11.886;2022-07-01T00:46:28;2.38;;;2.28;;
27424;SDS011;15244;49.088;11.886;2022-07-01T00:51:31;3.42;;;2.30;;
27424;SDS011;15244;49.088;11.886;2022-07-01T00:56:33;2.30;;;2.10;;
27424;SDS011;15244;49.088;11.886;2022-07-01T01:01:34;3.78;;;2.03;;
27424;SDS011;15244;49.088;11.886;2022-07-01T01:06:36;1.98;;;1.75;;
27424;SDS011;15244;49.088;11.886;2022-07-01T01:11:38;2.60;;;2.22;;
27424;SDS011;15244;49.088;11.886;2022-07-01T01:16:40;1.50;;;1.40;;
27424;SDS011;15244;49.088;11.886;2022-07-01T01:21:41;3.00;;;1.70;;
27424;SDS011;15244;49.088;11.886;2022-07-01T01:26:43;1.70;;;1.60;;
27424;SDS011;15244;49.088;11.886;2022-07-01T01:31:45;3.38;;;1.65;;
27424;SDS011;15244;49.088;11.886;2022-07-01T01:36:48;2.17;;;2.08;;
27424;SDS011;15244;49.088;11.886;2022-07-01T01:41:49;2.95;;;1.80;;
27424;SDS011;15244;49.088;11.886;2022-07-01T01:46:51;2.25;;;1.50;;
27424;SDS011;15244;49.088;11.886;2022-07-01T01:51:53;2.65;;;1.80;;
27424;SDS011;15244;49.088;11.886;2022-07-01T01:56:55;1.50;;;1.45;;
27424;SDS011;15244;49.088;11.886;2022-07-01T02:01:57;2.72;;;1.52;;
27424;SDS011;15244;49.088;11.886;2022-07-01T02:06:59;2.50;;;1.85;;
27424;SDS011;15244;49.088;11.886;2022-07-01T02:12:01;1.80;;;1.70;;
27424;SDS011;15244;49.088;11.886;2022-07-01T02:17:03;2.55;;;2.35;;
27424;SDS011;15244;49.088;11.886;2022-07-01T02:22:05;1.85;;;1.58;;
27424;SDS011;15244;49.088;11.886;2022-07-01T02:27:07;2.50;;;2.00;;
27424;SDS011;15244;49.088;11.886;2022-07-01T02:32:09;3.70;;;1.75;;
27424;SDS011;15244;49.088;11.886;2022-07-01T02:37:11;1.90;;;1.80;;
27424;SDS011;15244;49.088;11.886;2022-07-01T02:42:13;1.75;;;1.65;;
27424;SDS011;15244;49.088;11.886;2022-07-01T02:47:37;1.92;;;1.83;;
27424;SDS011;15244;49.088;11.886;2022-07-01T02:52:41;3.30;;;1.73;;
27424;SDS011;15244;49.088;11.886;2022-07-01T02:57:43;2.40;;;1.80;;
27424;SDS011;15244;49.088;11.886;2022-07-01T03:02:45;2.15;;;1.95;;
27424;SDS011;15244;49.088;11.886;2022-07-01T03:07:47;2.13;;;1.92;;
27424;SDS011;15244;49.088;11.886;2022-07-01T03:12:49;1.90;;;1.80;;
27424;SDS011;15244;49.088;11.886;2022-07-01T03:17:51;1.63;;;1.50;;
27424;SDS011;15244;49.088;11.886;2022-07-01T03:22:53;1.70;;;1.60;;
27424;SDS011;15244;49.088;11.886;2022-07-01T03:27:55;1.50;;;1.40;;
27424;SDS011;15244;49.088;11.886;2022-07-01T03:32:56;4.22;;;1.48;;
27424;SDS011;15244;49.088;11.886;2022-07-01T03:37:58;1.85;;;1.20;;
27424;SDS011;15244;49.088;11.886;2022-07-01T03:43:00;1.27;;;1.17;;
27424;SDS011;15244;49.088;11.886;2022-07-01T03:48:02;1.13;;;1.05;;
27424;SDS011;15244;49.088;11.886;2022-07-01T03:53:04;1.83;;;1.60;;
27424;SDS011;15244;49.088;11.886;2022-07-01T03:58:24;1.30;;;1.20;;
27424;SDS011;15244;49.088;11.886;2022-07-01T04:03:26;1.77;;;1.20;;
27424;SDS011;15244;49.088;11.886;2022-07-01T04:08:28;1.30;;;1.20;;
27424;SDS011;15244;49.088;11.886;2022-07-01T04:13:30;1.15;;;0.95;;
27424;SDS011;15244;49.088;11.886;2022-07-01T04:18:32;1.50;;;1.40;;
27424;SDS011;15244;49.088;11.886;2022-07-01T04:23:34;1.30;;;1.20;;
27424;SDS011;15244;49.088;11.886;2022-07-01T04:28:36;2.22;;;1.35;;
27424;SDS011;15244;49.088;11.886;2022-07-01T04:33:38;1.48;;;1.20;;
27424;SDS011;15244;49.088;11.886;2022-07-01T04:38:40;2.50;;;1.10;;
27424;SDS011;15244;49.088;11.886;2022-07-01T04:43:42;1.80;;;1.25;;
27424;SDS011;15244;49.088;11.886;2022-07-01T04:48:43;1.25;;;1.15;;
27424;SDS011;15244;49.088;11.886;2022-07-01T04:53:45;1.35;;;1.25;;
27424;SDS011;15244;49.088;11.886;2022-07-01T04:58:49;1.20;;;1.10;;
27424;SDS011;15244;49.088;11.886;2022-07-01T05:03:51;1.08;;;0.98;;
27424;SDS011;15244;49.088;11.886;2022-07-01T05:08:54;1.08;;;1.08;;
27424;SDS011;15244;49.088;11.886;2022-07-01T05:13:55;1.23;;;1.13;;
27424;SDS011;15244;49.088;11.886;2022-07-01T05:18:57;1.15;;;1.02;;
27424;SDS011;15244;49.088;11.886;2022-07-01T05:24:17;1.17;;;1.17;;
27424;SDS011;15244;49.088;11.886;2022-07-01T05:29:19;1.73;;;1.40;;
27424;SDS011;15244;49.088;11.886;2022-07-01T05:34:21;1.67;;;1.13;;
27424;SDS011;15244;49.088;11.886;2022-07-01T05:39:23;0.90;;;0.90;;
27424;SDS011;15244;49.088;11.886;2022-07-01T05:44:26;1.20;;;1.10;;
27424;SDS011;15244;49.088;11.886;2022-07-01T05:49:28;1.98;;;1.60;;
27424;SDS011;15244;49.088;11.886;2022-07-01T05:54:29;1.20;;;1.08;;
27424;SDS011;15244;49.088;11.886;2022-07-01T05:59:31;1.50;;;1.00;;
27424;SDS011;15244;49.088;11.886;2022-07-01T06:04:33;1.25;;;1.15;;
27424;SDS011;15244;49.088;11.886;2022-07-01T06:09:36;1.02;;;1.00;;
27424;SDS011;15244;49.088;11.886;2022-07-01T06:14:38;3.75;;;1.65;;
27424;SDS011;15244;49.088;11.886;2022-07-01T06:19:41;1.25;;;1.25;;
27424;SDS011;15244;49.088;11.886;2022-07-01T06:24:42;4.80;;;1.42;;
27424;SDS011;15244;49.088;11.886;2022-07-01T06:29:46;1.35;;;0.95;;
27424;SDS011;15244;49.088;11.886;2022-07-01T06:34:47;1.00;;;0.85;;
27424;SDS011;15244;49.088;11.886;2022-07-01T06:39:53;1.33;;;1.17;;
27424;SDS011;15244;49.088;11.886;2022-07-01T06:44:55;1.52;;;1.08;;
27424;SDS011;15244;49.088;11.886;2022-07-01T06:49:57;2.33;;;1.10;;
27424;SDS011;15244;49.088;11.886;2022-07-01T06:55:04;1.27;;;1.17;;
27424;SDS011;15244;49.088;11.886;2022-07-01T07:00:06;1.48;;;0.98;;
27424;SDS011;15244;49.088;11.886;2022-07-01T07:05:09;1.60;;;0.90;;
27424;SDS011;15244;49.088;11.886;2022-07-01T07:10:12;0.60;;;0.60;;
27424;SDS011;15244;49.088;11.886;2022-07-01T07:15:13;0.30;;;0.30;;
27424;SDS011;15244;49.088;11.886;2022-07-01T07:20:15;0.52;;;0.52;;
27424;SDS011;15244;49.088;11.886;2022-07-01T07:25:16;0.30;;;0.30;;
27424;SDS011;15244;49.088;11.886;2022-07-01T07:30:18;0.30;;;0.20;;
27424;SDS011;15244;49.088;11.886;2022-07-01T07:35:21;0.30;;;0.30;;
27424;SDS011;15244;49.088;11.886;2022-07-01T07:40:22;0.30;;;0.30;;
27424;SDS011;15244;49.088;11.886;2022-07-01T07:45:24;0.40;;;0.40;;
27424;SDS011;15244;49.088;11.886;2022-07-01T07:50:26;0.75;;;0.47;;
27424;SDS011;15244;49.088;11.886;2022-07-01T07:55:28;0.75;;;0.60;;
27424;SDS011;15244;49.088;11.886;2022-07-01T08:00:30;0.65;;;0.65;;
27424;SDS011;15244;49.088;11.886;2022-07-01T08:05:33;1.52;;;0.47;;
27424;SDS011;15244;49.088;11.886;2022-07-01T08:10:35;0.55;;;0.55;;
27424;SDS011;15244;49.088;11.886;2022-07-01T08:15:37;0.55;;;0.55;;
27424;SDS011;15244;49.088;11.886;2022-07-01T08:20:39;0.55;;;0.40;;
27424;SDS011;15244;49.088;11.886;2022-07-01T08:25:40;0.30;;;0.30;;
27424;SDS011;15244;49.088;11.886;2022-07-01T08:30:42;0.40;;;0.40;;
27424;SDS011;15244;49.088;11.886;2022-07-01T08:35:44;0.60;;;0.60;;
27424;SDS011;15244;49.088;11.886;2022-07-01T08:40:46;1.27;;;0.82;;
27424;SDS011;15244;49.088;11.886;2022-07-01T08:45:48;2.13;;;1.00;;
27424;SDS011;15244;49.088;11.886;2022-07-01T08:50:52;1.05;;;0.88;;
27424;SDS011;15244;49.088;11.886;2022-07-01T08:55:54;0.80;;;0.80;;
27424;SDS011;15244;49.088;11.886;2022-07-01T09:01:24;1.02;;;1.00;;
27424;SDS011;15244;49.088;11.886;2022-07-01T09:06:27;0.80;;;0.80;;
27424;SDS011;15244;49.088;11.886;2022-07-01T09:11:30;0.85;;;0.85;;
27424;SDS011;15244;49.088;11.886;2022-07-01T09:16:42;0.90;;;0.90;;
27424;SDS011;15244;49.088;11.886;2022-07-01T09:21:48;1.00;;;1.00;;
27424;SDS011;15244;49.088;11.886;2022-07-01T09:26:58;0.93;;;0.93;;
27424;SDS011;15244;49.088;11.886;2022-07-01T09:32:04;0.75;;;0.75;;
27424;SDS011;15244;49.088;11.886;2022-07-01T09:37:10;1.25;;;0.60;;
27424;SDS011;15244;49.088;11.886;2022-07-01T09:42:13;0.80;;;0.80;;
27424;SDS011;15244;49.088;11.886;2022-07-01T09:47:16;0.68;;;0.68;;
27424;SDS011;15244;49.088;11.886;2022-07-01T09:52:17;1.52;;;1.00;;
27424;SDS011;15244;49.088;11.886;2022-07-01T09:57:20;1.10;;;1.10;;
27424;SDS011;15244;49.088;11.886;2022-07-01T10:02:22;1.20;;;1.20;;
27424;SDS011;15244;49.088;11.886;2022-07-01T10:07:29;1.38;;;1.10;;
27424;SDS011;15244;49.088;11.886;2022-07-01T10:12:53;1.35;;;1.30;;
27424;SDS011;15244;49.088;11.886;2022-07-01T10:17:56;1.77;;;1.67;;
27424;SDS011;15244;49.088;11.886;2022-07-01T10:23:02;1.92;;;1.73;;
27424;SDS011;15244;49.088;11.886;2022-07-01T10:39:13;1.40;;;1.40;;
27424;SDS011;15244;49.088;11.886;2022-07-01T10:44:18;1.58;;;1.52;;
27424;SDS011;15244;49.088;11.886;2022-07-01T10:59:43;0.90;;;0.90;;
27424;SDS011;15244;49.088;11.886;2022-07-01T11:04:46;1.27;;;1.02;;
27424;SDS011;15244;49.088;11.886;2022-07-01T11:09:48;0.90;;;0.77;;
27424;SDS011;15244;49.088;11.886;2022-07-01T11:14:51;0.77;;;0.77;;
27424;SDS011;15244;49.088;11.886;2022-07-01T11:19:55;0.70;;;0.70;;
27424;SDS011;15244;49.088;11.886;2022-07-01T11:25:09;1.83;;;0.52;;
27424;SDS011;15244;49.088;11.886;2022-07-01T11:30:13;0.98;;;0.40;;
27424;SDS011;15244;49.088;11.886;2022-07-01T11:35:25;0.40;;;0.40;;
27424;SDS011;15244;49.088;11.886;2022-07-01T11:40:51;0.40;;;0.40;;
27424;SDS011;15244;49.088;11.886;2022-07-01T11:45:54;0.40;;;0.40;;
27424;SDS011;15244;49.088;11.886;2022-07-01T11:51:01;0.35;;;0.30;;
27424;SDS011;15244;49.088;11.886;2022-07-01T11:56:08;0.20;;;0.20;;
27424;SDS011;15244;49.088;11.886;2022-07-01T12:01:10;0.77;;;0.47;;
27424;SDS011;15244;49.088;11.886;2022-07-01T12:06:12;0.25;;;0.25;;
27424;SDS011;15244;49.088;11.886;2022-07-01T12:11:16;0.20;;;0.20;;
27424;SDS011;15244;49.088;11.886;2022-07-01T12:16:19;0.63;;;0.32;;
27424;SDS011;15244;49.088;11.886;2022-07-01T12:21:22;0.38;;;0.38;;
27424;SDS011;15244;49.088;11.886;2022-07-01T12:26:29;0.40;;;0.40;;
27424;SDS011;15244;49.088;11.886;2022-07-01T12:31:33;0.50;;;0.50;;
27424;SDS011;15244;49.088;11.886;2022-07-01T12:36:35;0.35;;;0.35;;
27424;SDS011;15244;49.088;11.886;2022-07-01T12:41:38;0.30;;;0.30;;
27424;SDS011;15244;49.088;11.886;2022-07-01T12:46:41;0.73;;;0.57;;
27424;SDS011;15244;49.088;11.886;2022-07-01T12:51:42;0.30;;;0.30;;
27424;SDS011;15244;49.088;11.886;2022-07-01T12:56:45;0.65;;;0.47;;
27424;SDS011;15244;49.088;11.886;2022-07-01T13:01:46;0.60;;;0.57;;
27424;SDS011;15244;49.088;11.886;2022-07-01T13:06:48;0.63;;;0.63;;
27424;SDS011;15244;49.088;11.886;2022-07-01T13:11:50;0.50;;;0.50;;
27424;SDS011;15244;49.088;11.886;2022-07-01T13:16:51;1.05;;;0.40;;
27424;SDS011;15244;49.088;11.886;2022-07-01T13:21:53;0.25;;;0.25;;
27424;SDS011;15244;49.088;11.886;2022-07-01T13:26:55;0.50;;;0.50;;
27424;SDS011;15244;49.088;11.886;2022-07-01T13:31:57;0.57;;;0.57;;
27424;SDS011;15244;49.088;11.886;2022-07-01T13:36:59;0.68;;;0.40;;
27424;SDS011;15244;49.088;11.886;2022-07-01T13:42:01;1.13;;;0.43;;
27424;SDS011;15244;49.088;11.886;2022-07-01T13:47:03;0.70;;;0.68;;
27424;SDS011;15244;49.088;11.886;2022-07-01T13:52:06;0.50;;;0.50;;
27424;SDS011;15244;49.088;11.886;2022-07-01T13:57:08;1.08;;;0.60;;
27424;SDS011;15244;49.088;11.886;2022-07-01T14:02:10;0.50;;;0.50;;
27424;SDS011;15244;49.088;11.886;2022-07-01T14:07:12;1.75;;;0.70;;
27424;SDS011;15244;49.088;11.886;2022-07-01T14:12:14;0.43;;;0.40;;
27424;SDS011;15244;49.088;11.886;2022-07-01T14:17:27;0.40;;;0.40;;
27424;SDS011;15244;49.088;11.886;2022-07-01T14:22:31;0.68;;;0.40;;
27424;SDS011;15244;49.088;11.886;2022-07-01T14:27:32;1.83;;;0.70;;
27424;SDS011;15244;49.088;11.886;2022-07-01T14:32:36;0.70;;;0.70;;
27424;SDS011;15244;49.088;11.886;2022-07-01T14:37:38;0.60;;;0.60;;
27424;SDS011;15244;49.088;11.886;2022-07-01T14:42:41;0.57;;;0.50;;
27424;SDS011;15244;49.088;11.886;2022-07-01T14:47:43;0.93;;;0.77;;
27424;SDS011;15244;49.088;11.886;2022-07-01T14:52:45;0.60;;;0.60;;
27424;SDS011;15244;49.088;11.886;2022-07-01T14:57:47;1.52;;;0.80;;
27424;SDS011;15244;49.088;11.886;2022-07-01T15:02:49;0.50;;;0.50;;
27424;SDS011;15244;49.088;11.886;2022-07-01T15:07:51;0.55;;;0.55;;
27424;SDS011;15244;49.088;11.886;2022-07-01T15:12:53;0.60;;;0.60;;
27424;SDS011;15244;49.088;11.886;2022-07-01T15:17:54;0.40;;;0.40;;
27424;SDS011;15244;49.088;11.886;2022-07-01T15:22:56;0.50;;;0.50;;
27424;SDS011;15244;49.088;11.886;2022-07-01T15:27:58;0.55;;;0.55;;
27424;SDS011;15244;49.088;11.886;2022-07-01T15:32:59;0.90;;;0.70;;
27424;SDS011;15244;49.088;11.886;2022-07-01T15:38:01;0.50;;;0.50;;
27424;SDS011;15244;49.088;11.886;2022-07-01T15:43:06;0.50;;;0.50;;
27424;SDS011;15244;49.088;11.886;2022-07-01T15:48:10;0.70;;;0.70;;
27424;SDS011;15244;49.088;11.886;2022-07-01T15:53:12;0.60;;;0.60;;
27424;SDS011;15244;49.088;11.886;2022-07-01T15:58:16;0.70;;;0.52;;
27424;SDS011;15244;49.088;11.886;2022-07-01T16:03:20;1.08;;;0.50;;
27424;SDS011;15244;49.088;11.886;2022-07-01T16:08:32;0.52;;;0.52;;
27424;SDS011;15244;49.088;11.886;2022-07-01T16:13:39;0.75;;;0.60;;
27424;SDS011;15244;49.088;11.886;2022-07-01T16:23:51;0.50;;;0.50;;
27424;SDS011;15244;49.088;11.886;2022-07-01T16:28:56;1.08;;;1.08;;
27424;SDS011;15244;49.088;11.886;2022-07-01T16:34:00;0.80;;;0.65;;
27424;SDS011;15244;49.088;11.886;2022-07-01T16:39:03;0.93;;;0.85;;
27424;SDS011;15244;49.088;11.886;2022-07-01T16:44:10;0.60;;;0.60;;
27424;SDS011;15244;49.088;11.886;2022-07-01T16:49:20;0.70;;;0.70;;
27424;SDS011;15244;49.088;11.886;2022-07-01T16:54:28;0.60;;;0.60;;
27424;SDS011;15244;49.088;11.886;2022-07-01T16:59:33;0.57;;;0.57;;
27424;SDS011;15244;49.088;11.886;2022-07-01T17:04:35;0.70;;;0.70;;
27424;SDS011;15244;49.088;11.886;2022-07-01T17:09:39;0.70;;;0.70;;
27424;SDS011;15244;49.088;11.886;2022-07-01T17:14:46;1.03;;;0.70;;
27424;SDS011;15244;49.088;11.886;2022-07-01T17:19:49;0.60;;;0.60;;
27424;SDS011;15244;49.088;11.886;2022-07-01T17:25:02;0.65;;;0.65;;
27424;SDS011;15244;49.088;11.886;2022-07-01T17:30:08;0.73;;;0.73;;
27424;SDS011;15244;49.088;11.886;2022-07-01T17:35:15;1.00;;;0.90;;
27424;SDS011;15244;49.088;11.886;2022-07-01T17:40:18;0.60;;;0.60;;
27424;SDS011;15244;49.088;11.886;2022-07-01T17:45:23;0.73;;;0.65;;
27424;SDS011;15244;49.088;11.886;2022-07-01T17:50:25;0.85;;;0.60;;
27424;SDS011;15244;49.088;11.886;2022-07-01T17:55:28;1.17;;;1.08;;
27424;SDS011;15244;49.088;11.886;2022-07-01T18:00:32;0.70;;;0.70;;
27424;SDS011;15244;49.088;11.886;2022-07-01T18:05:35;1.02;;;0.80;;
27424;SDS011;15244;49.088;11.886;2022-07-01T18:10:46;1.08;;;0.60;;
27424;SDS011;15244;49.088;11.886;2022-07-01T18:15:51;2.70;;;2.60;;
27424;SDS011;15244;49.088;11.886;2022-07-01T18:20:58;3.60;;;2.73;;
27424;SDS011;15244;49.088;11.886;2022-07-01T18:26:10;10.32;;;9.68;;
27424;SDS011;15244;49.088;11.886;2022-07-01T18:31:18;2.05;;;1.95;;
27424;SDS011;15244;49.088;11.886;2022-07-01T18:36:31;1.50;;;1.40;;
27424;SDS011;15244;49.088;11.886;2022-07-01T18:41:37;1.55;;;1.42;;
27424;SDS011;15244;49.088;11.886;2022-07-01T18:46:39;1.42;;;0.90;;
27424;SDS011;15244;49.088;11.886;2022-07-01T18:51:41;2.75;;;0.77;;
27424;SDS011;15244;49.088;11.886;2022-07-01T18:56:44;0.75;;;0.75;;
27424;SDS011;15244;49.088;11.886;2022-07-01T19:01:45;1.00;;;0.88;;
27424;SDS011;15244;49.088;11.886;2022-07-01T19:06:53;1.95;;;1.00;;
27424;SDS011;15244;49.088;11.886;2022-07-01T19:11:54;1.20;;;1.00;;
27424;SDS011;15244;49.088;11.886;2022-07-01T19:16:57;1.85;;;0.90;;
27424;SDS011;15244;49.088;11.886;2022-07-01T19:21:59;1.00;;;1.00;;
27424;SDS011;15244;49.088;11.886;2022-07-01T19:27:01;2.15;;;1.00;;
27424;SDS011;15244;49.088;11.886;2022-07-01T19:32:04;0.90;;;0.90;;
27424;SDS011;15244;49.088;11.886;2022-07-01T19:37:06;1.70;;;0.98;;
27424;SDS011;15244;49.088;11.886;2022-07-01T19:42:09;1.05;;;0.95;;
27424;SDS011;15244;49.088;11.886;2022-07-01T19:47:10;1.55;;;0.80;;
27424;SDS011;15244;49.088;11.886;2022-07-01T19:52:12;2.72;;;1.00;;
27424;SDS011;15244;49.088;11.886;2022-07-01T19:57:15;2.28;;;1.15;;
27424;SDS011;15244;49.088;11.886;2022-07-01T20:02:17;1.48;;;0.95;;
27424;SDS011;15244;49.088;11.886;2022-07-01T20:07:19;1.42;;;1.10;;
27424;SDS011;15244;49.088;11.886;2022-07-01T20:12:20;2.00;;;0.90;;
27424;SDS011;15244;49.088;11.886;2022-07-01T20:17:23;1.85;;;1.30;;
27424;SDS011;15244;49.088;11.886;2022-07-01T20:22:25;1.80;;;1.00;;
27424;SDS011;15244;49.088;11.886;2022-07-01T20:27:26;1.13;;;1.08;;
27424;SDS011;15244;49.088;11.886;2022-07-01T20:32:28;1.20;;;1.10;;
27424;SDS011;15244;49.088;11.886;2022-07-01T20:37:30;2.22;;;1.13;;
27424;SDS011;15244;49.088;11.886;2022-07-01T20:42:37;4.00;;;1.15;;
27424;SDS011;15244;49.088;11.886;2022-07-01T20:47:41;1.95;;;1.20;;
27424;SDS011;15244;49.088;11.886;2022-07-01T20:52:42;1.15;;;1.05;;
27424;SDS011;15244;49.088;11.886;2022-07-01T20:57:44;1.08;;;0.90;;
27424;SDS011;15244;49.088;11.886;2022-07-01T21:02:47;0.90;;;0.90;;
27424;SDS011;15244;49.088;11.886;2022-07-01T21:07:54;2.35;;;1.35;;
27424;SDS011;15244;49.088;11.886;2022-07-01T21:12:56;0.90;;;0.90;;
27424;SDS011;15244;49.088;11.886;2022-07-01T21:17:57;0.90;;;0.90;;
27424;SDS011;15244;49.088;11.886;2022-07-01T21:22:59;1.50;;;1.00;;
27424;SDS011;15244;49.088;11.886;2022-07-01T21:28:01;1.08;;;0.95;;
27424;SDS011;15244;49.088;11.886;2022-07-01T21:33:06;1.45;;;0.98;;
27424;SDS011;15244;49.088;11.886;2022-07-01T21:38:09;2.47;;;1.23;;
27424;SDS011;15244;49.088;11.886;2022-07-01T21:43:11;1.17;;;1.17;;
27424;SDS011;15244;49.088;11.886;2022-07-01T21:48:15;1.02;;;1.02;;
27424;SDS011;15244;49.088;11.886;2022-07-01T21:53:21;1.20;;;1.10;;
27424;SDS011;15244;49.088;11.886;2022-07-01T21:58:23;1.58;;;1.35;;
27424;SDS011;15244;49.088;11.886;2022-07-01T22:03:27;1.30;;;1.20;;
27424;SDS011;15244;49.088;11.886;2022-07-01T22:08:30;1.25;;;1.25;;
27424;SDS011;15244;49.088;11.886;2022-07-01T22:19:04;1.45;;;1.35;;
27424;SDS011;15244;49.088;11.886;2022-07-01T22:24:06;2.85;;;1.20;;
27424;SDS011;15244;49.088;11.886;2022-07-01T22:29:10;1.42;;;1.33;;
27424;SDS011;15244;49.088;11.886;2022-07-01T22:34:13;1.70;;;1.60;;
27424;SDS011;15244;49.088;11.886;2022-07-01T22:39:16;1.80;;;1.70;;
27424;SDS011;15244;49.088;11.886;2022-07-01T22:44:19;1.60;;;1.60;;
27424;SDS011;15244;49.088;11.886;2022-07-01T22:55:02;1.80;;;1.70;;
27424;SDS011;15244;49.088;11.886;2022-07-01T23:00:11;2.47;;;1.58;;
27424;SDS011;15244;49.088;11.886;2022-07-01T23:05:13;1.48;;;1.48;;
27424;SDS011;15244;49.088;11.886;2022-07-01T23:10:27;1.20;;;1.20;;
27424;SDS011;15244;49.088;11.886;2022-07-01T23:15:34;1.60;;;1.50;;
27424;SDS011;15244;49.088;11.886;2022-07-01T23:20:57;1.50;;;1.50;;
27424;SDS011;15244;49.088;11.886;2022-07-01T23:26:00;1.55;;;1.50;;
27424;SDS011;15244;49.088;11.886;2022-07-01T23:31:04;1.20;;;1.15;;
27424;SDS011;15244;49.088;11.886;2022-07-01T23:36:07;1.90;;;1.80;;
27424;SDS011;15244;49.088;11.886;2022-07-01T23:41:10;1.52;;;1.42;;
27424;SDS011;15244;49.088;11.886;2022-07-01T23:46:18;1.90;;;1.60;;
27424;SDS011;15244;49.088;11.886;2022-07-01T23:51:25;1.45;;;1.40;;
27424;SDS011;15244;49.088;11.886;2022-07-01T23:56:27;1.63;;;1.55;;
